ARG1241 SBSP-SABE
Flight info
| Callsign | ARG1241 |
|---|---|
| Flight time | N/A |
| Altitude | 40000 |
| Route | UBSOD DCT EDNEL DCT ARTUT DCT UGINO DCT ABODE DCT UMDEX DCT ARSIT DCT VUKMO DCT VAGAL DCT PALEL DCT GEPMI DCT TOBNI DCT VURAG DCT UGUTU DCT ISOBU DCT UMRUD DCT VUDUP DCT ENTED DCT GUVON DCT PAPIX PAPIX2Q |
| Aircraft | A343/H-SDE2E3FGHIJ4J5M1RWXY/LB1D1 |
Departure
| Time | 2026-05-06 18:56 |
|---|---|
| Airport | Congonhas–Deputado Freitas Nobre Airport (SBSP) |
Arrival
| Time | N/A |
|---|---|
| Airport | Aeroparque Jorge Newbery (SABE) |
| Time | Latitude | Longitude | Altitude | Speed | Heading |
|---|---|---|---|---|---|
| 2026-05-06 18:33 | -23.62910 | -46.65736 | 2605 ft | 0 kts | 328° |
| 2026-05-06 18:44 | -23.62911 | -46.65736 | 2605 ft | 2 kts | 328° |
| 2026-05-06 18:44 | -23.62920 | -46.65730 | 2605 ft | 2 kts | 356° |
| 2026-05-06 18:45 | -23.62941 | -46.65731 | 2605 ft | 3 kts | 26° |
| 2026-05-06 18:45 | -23.62957 | -46.65745 | 2605 ft | 3 kts | 55° |
| 2026-05-06 18:45 | -23.62963 | -46.65755 | 2604 ft | 1 kts | 57° |
| 2026-05-06 18:45 | -23.62963 | -46.65756 | 2604 ft | 0 kts | 57° |
| 2026-05-06 18:47 | -23.62963 | -46.65755 | 2604 ft | 0 kts | 57° |
| 2026-05-06 18:48 | -23.62955 | -46.65742 | 2605 ft | 4 kts | 57° |
| 2026-05-06 18:48 | -23.62955 | -46.65741 | 2605 ft | 0 kts | 57° |
| 2026-05-06 18:49 | -23.62950 | -46.65734 | 2605 ft | 3 kts | 57° |
| 2026-05-06 18:49 | -23.62930 | -46.65700 | 2605 ft | 8 kts | 57° |
| 2026-05-06 18:49 | -23.62915 | -46.65674 | 2605 ft | 2 kts | 57° |
| 2026-05-06 18:49 | -23.62908 | -46.65663 | 2605 ft | 2 kts | 57° |
| 2026-05-06 18:50 | -23.62900 | -46.65650 | 2605 ft | 2 kts | 57° |
| 2026-05-06 18:50 | -23.62894 | -46.65639 | 2606 ft | 1 kts | 57° |
| 2026-05-06 18:50 | -23.62890 | -46.65633 | 2606 ft | 1 kts | 53° |
| 2026-05-06 18:50 | -23.62875 | -46.65626 | 2606 ft | 3 kts | 18° |
| 2026-05-06 18:51 | -23.62844 | -46.65635 | 2607 ft | 7 kts | 334° |
| 2026-05-06 18:51 | -23.62786 | -46.65673 | 2607 ft | 13 kts | 328° |
| 2026-05-06 18:51 | -23.62682 | -46.65746 | 2606 ft | 22 kts | 327° |
| 2026-05-06 18:51 | -23.62552 | -46.65834 | 2606 ft | 22 kts | 327° |
| 2026-05-06 18:52 | -23.62420 | -46.65927 | 2605 ft | 23 kts | 328° |
| 2026-05-06 18:52 | -23.62289 | -46.66016 | 2604 ft | 19 kts | 328° |
| 2026-05-06 18:52 | -23.62204 | -46.66066 | 2603 ft | 14 kts | 328° |
| 2026-05-06 18:52 | -23.62159 | -46.66097 | 2603 ft | 7 kts | 328° |
| 2026-05-06 18:53 | -23.62112 | -46.66128 | 2602 ft | 8 kts | 330° |
| 2026-05-06 18:53 | -23.62101 | -46.66134 | 2602 ft | 0 kts | 336° |
| 2026-05-06 18:53 | -23.62087 | -46.66136 | 2601 ft | 4 kts | 353° |
| 2026-05-06 18:53 | -23.62057 | -46.66123 | 2600 ft | 5 kts | 38° |
| 2026-05-06 18:54 | -23.62050 | -46.66093 | 2600 ft | 3 kts | 95° |
| 2026-05-06 18:54 | -23.62057 | -46.66074 | 2600 ft | 2 kts | 118° |
| 2026-05-06 18:54 | -23.62067 | -46.66062 | 2600 ft | 2 kts | 139° |
| 2026-05-06 18:54 | -23.62071 | -46.66060 | 2600 ft | 0 kts | 149° |
| 2026-05-06 18:55 | -23.62109 | -46.66035 | 2601 ft | 30 kts | 148° |
| 2026-05-06 18:55 | -23.62513 | -46.65752 | 2608 ft | 106 kts | 147° |
| 2026-05-06 18:56 | -23.63316 | -46.65203 | 2703 ft | 159 kts | 149° |
| 2026-05-06 18:56 | -23.64326 | -46.64551 | 3402 ft | 176 kts | 147° |
| 2026-05-06 18:56 | -23.65453 | -46.63950 | 4213 ft | 187 kts | 168° |
| 2026-05-06 18:56 | -23.66785 | -46.64059 | 4753 ft | 203 kts | 192° |
| 2026-05-06 18:57 | -23.68266 | -46.64368 | 5070 ft | 229 kts | 185° |
| 2026-05-06 18:57 | -23.69360 | -46.64486 | 5261 ft | 248 kts | 182° |
| 2026-05-06 18:57 | -23.71808 | -46.64657 | 6086 ft | 269 kts | 183° |
| 2026-05-06 18:57 | -23.73647 | -46.65191 | 6777 ft | 282 kts | 211° |
| 2026-05-06 18:58 | -23.75068 | -46.66668 | 7264 ft | 285 kts | 237° |
| 2026-05-06 18:58 | -23.76129 | -46.68521 | 7460 ft | 290 kts | 240° |
| 2026-05-06 18:58 | -23.77157 | -46.70411 | 7476 ft | 290 kts | 240° |
| 2026-05-06 18:58 | -23.78209 | -46.72296 | 7549 ft | 291 kts | 239° |
| 2026-05-06 18:59 | -23.79279 | -46.74171 | 7995 ft | 292 kts | 239° |
| 2026-05-06 18:59 | -23.80375 | -46.76021 | 8849 ft | 294 kts | 237° |
| 2026-05-06 18:59 | -23.81507 | -46.77878 | 9861 ft | 295 kts | 237° |
| 2026-05-06 18:59 | -23.82661 | -46.79768 | 10540 ft | 307 kts | 237° |
| 2026-05-06 19:00 | -23.83884 | -46.81774 | 10891 ft | 327 kts | 237° |